Ney, Ohio
Current Conditions -  °F | °C
As of 4:53 PM on Thursday 23 Oct 2014 (Local Time) from KDFI Reporting Station
Clear Clear  
Wind Chill: 58°   Ceiling: Unl
Heat Index: 58°   Visibility: 9mi
Dew Point: 38°   Wind: 5mph
Humidity: 47%   Direction: 220°SW
Pressure: 30.14"   Gusts: NA
Location:  41.38°N, 84.52°W
Report Text: KDFI 232053Z AUTO 22004KT 9SM CLR 14/03 A3014 RMK AO2 SLP212 T01440033 56020
Loading
Personal Weather Stations






























Interactive Weather Map
Tropical Storm Tracking
New forecast layout! Learn more

10-Day Weather Forecast

Advertisements
Track Severe Weather on mobile